Time;durP1;ratioP1;P1;durP2;ratioP2;P2;SDS_P1;SDS_P2;PMS_P1;PMS_P2;Temp;Humidity;BMP_temperature;BMP_pressure;BME280_temperature;BME280_humidity;BME280_pressure;Samples;Min_cycle;Max_cycle;Signal;HPM_P1;HPM_P2
2022/01/11 00:01:27;;;;;;;22.67;9.83;;;;;;;0.68;100.00;100454.31;31342928;28;20176;-76
2022/01/11 00:16:29;;;;;;;16.43;6.93;;;;;;;0.53;100.00;100449.69;31343966;28;20060;-76
2022/01/11 00:31:31;;;;;;;18.30;9.37;;;;;;;0.51;100.00;100457.28;31351582;28;20136;-76
2022/01/11 00:46:34;;;;;;;22.67;11.10;;;;;;;0.52;100.00;100458.81;31348398;28;20151;-76
2022/01/11 01:01:37;;;;;;;23.27;9.57;;;;;;;0.39;100.00;100454.66;31370579;28;20467;-74
2022/01/11 01:16:40;;;;;;;24.10;10.00;;;;;;;0.32;100.00;100440.00;31377250;28;20063;-75
2022/01/11 01:31:42;;;;;;;18.13;9.10;;;;;;;-0.02;100.00;100451.28;31381188;28;20132;-73
2022/01/11 01:46:44;;;;;;;24.20;9.33;;;;;;;-0.05;100.00;100457.28;31353564;28;20045;-75
2022/01/11 02:01:48;;;;;;;18.73;8.37;;;;;;;-0.05;100.00;100451.94;31359756;28;20060;-75
2022/01/11 02:16:50;;;;;;;20.03;9.23;;;;;;;-0.18;100.00;100459.19;31360198;28;20527;-76
2022/01/11 02:31:52;;;;;;;16.00;7.23;;;;;;;-0.26;100.00;100438.00;31344463;28;20474;-74
2022/01/11 02:46:54;;;;;;;15.70;8.00;;;;;;;-0.15;100.00;100463.06;31383012;28;20057;-75
2022/01/11 03:01:55;;;;;;;15.57;8.27;;;;;;;-0.14;100.00;100470.75;31380594;28;20045;-76
2022/01/11 03:16:58;;;;;;;15.27;7.90;;;;;;;-0.23;100.00;100487.97;31380969;28;20061;-75
2022/01/11 03:32:00;;;;;;;21.10;9.20;;;;;;;-0.09;100.00;100483.09;31373314;28;20045;-74
2022/01/11 03:47:02;;;;;;;15.17;7.70;;;;;;;-0.26;100.00;100492.13;31320980;28;20055;-75
2022/01/11 04:02:04;;;;;;;20.33;9.63;;;;;;;-0.26;100.00;100505.47;31298885;28;20079;-76
2022/01/11 04:17:07;;;;;;;29.10;11.77;;;;;;;-0.20;100.00;100524.66;31305520;28;20060;-75
2022/01/11 04:32:09;;;;;;;17.27;6.70;;;;;;;-0.43;100.00;100527.78;31294848;28;20144;-76
2022/01/11 04:47:11;;;;;;;23.33;9.47;;;;;;;-0.55;100.00;100525.13;31337807;28;20065;-75
2022/01/11 05:02:13;;;;;;;21.53;8.37;;;;;;;-0.54;100.00;100531.25;31338379;28;20425;-75
2022/01/11 05:17:15;;;;;;;24.20;9.53;;;;;;;-0.49;100.00;100523.81;31340553;28;20053;-76
2022/01/11 05:32:17;;;;;;;14.60;7.23;;;;;;;-0.70;100.00;100547.09;31358739;28;20081;-76
2022/01/11 05:47:20;;;;;;;14.73;7.80;;;;;;;-0.78;100.00;100561.34;31404906;28;20519;-75
2022/01/11 06:02:22;;;;;;;12.43;7.03;;;;;;;-0.60;100.00;100580.56;31371419;28;20079;-75
2022/01/11 06:17:24;;;;;;;11.47;6.97;;;;;;;-0.63;100.00;100591.91;31386361;28;20048;-76
2022/01/11 06:32:26;;;;;;;13.37;7.57;;;;;;;-0.61;99.15;100603.78;31381254;28;20063;-77
2022/01/11 06:47:27;;;;;;;13.73;6.30;;;;;;;-0.65;99.62;100621.56;31395794;28;20061;-77
2022/01/11 07:02:29;;;;;;;18.70;7.20;;;;;;;-0.80;100.00;100630.97;31386697;28;20049;-77
2022/01/11 07:17:31;;;;;;;18.80;7.33;;;;;;;-0.79;99.54;100658.41;31361650;28;20068;-75
2022/01/11 07:32:35;;;;;;;16.43;8.07;;;;;;;-0.93;98.84;100684.53;31358787;28;20500;-75
2022/01/11 07:47:37;;;;;;;16.20;7.73;;;;;;;-1.18;99.54;100695.09;31387850;28;20569;-75
2022/01/11 08:02:39;;;;;;;19.43;8.53;;;;;;;-1.20;100.00;100692.00;31372288;28;20059;-74
2022/01/11 08:17:41;;;;;;;20.33;7.57;;;;;;;-1.21;99.30;100706.41;31406019;28;20045;-74
2022/01/11 08:32:43;;;;;;;14.57;7.33;;;;;;;-1.27;97.79;100707.69;31377357;28;20064;-75
2022/01/11 08:47:46;;;;;;;18.37;7.77;;;;;;;-1.27;98.03;100681.06;31301516;28;20475;-75
2022/01/11 09:02:52;;;;;;;17.77;9.13;;;;;;;-1.16;98.16;100660.91;31312228;28;20061;-75
2022/01/11 09:17:55;;;;;;;11.23;6.90;;;;;;;-1.31;96.14;100653.50;31344133;28;20149;-75
2022/01/11 09:32:57;;;;;;;13.43;8.23;;;;;;;-1.29;96.36;100645.97;31365272;28;20164;-75
2022/01/11 09:47:59;;;;;;;13.57;6.63;;;;;;;-1.39;95.69;100654.34;31424725;28;20053;-75
2022/01/11 10:03:02;;;;;;;10.40;6.37;;;;;;;-1.45;95.54;100648.44;31423141;28;20088;-75
2022/01/11 10:18:06;;;;;;;10.53;5.67;;;;;;;-1.42;95.71;100636.38;31397300;28;20061;-76
2022/01/11 10:33:09;;;;;;;12.13;7.57;;;;;;;-1.41;94.63;100635.25;31397355;28;20058;-76
2022/01/11 10:48:15;;;;;;;15.30;7.00;;;;;;;-1.35;95.50;100631.28;31312278;28;20521;-76
2022/01/11 11:03:26;;;;;;;8.67;4.80;;;;;;;-1.41;94.64;100656.53;31310273;28;20053;-78
2022/01/11 11:18:35;;;;;;;10.17;6.77;;;;;;;-1.57;94.43;100655.56;31316040;28;20387;-76
2022/01/11 11:33:38;;;;;;;12.13;6.50;;;;;;;-1.57;93.39;100650.25;31302760;28;20605;-77
2022/01/11 11:48:40;;;;;;;10.77;5.53;;;;;;;-1.57;94.10;100667.00;31324576;28;20787;-76
2022/01/11 12:03:43;;;;;;;10.03;5.53;;;;;;;-1.58;94.24;100669.97;31312595;28;20140;-77
2022/01/11 12:18:45;;;;;;;12.67;6.33;;;;;;;-1.61;95.98;100686.59;31316170;28;20140;-76
2022/01/11 12:33:48;;;;;;;13.93;6.37;;;;;;;-1.60;97.05;100693.47;31334871;28;20816;-75
2022/01/11 12:48:57;;;;;;;10.03;5.37;;;;;;;-1.45;96.36;100706.25;31420872;28;20052;-74
2022/01/11 13:04:00;;;;;;;10.43;5.67;;;;;;;-1.50;93.99;100712.53;31411908;28;20057;-76
2022/01/11 13:19:10;;;;;;;11.33;5.27;;;;;;;-1.61;93.52;100721.19;31424842;28;20083;-76
2022/01/11 13:34:14;;;;;;;14.50;6.53;;;;;;;-1.69;95.78;100732.69;31412189;28;20804;-75
2022/01/11 13:49:24;;;;;;;16.73;7.97;;;;;;;-1.77;95.72;100732.41;31411206;28;20071;-75
2022/01/11 14:04:26;;;;;;;22.73;9.50;;;;;;;-1.78;95.07;100746.81;31410955;28;20054;-76
2022/01/11 14:19:28;;;;;;;21.60;9.90;;;;;;;-1.79;95.20;100755.09;31404826;28;20518;-78
2022/01/11 14:34:32;;;;;;;18.57;9.30;;;;;;;-1.77;95.14;100758.25;31408850;28;20088;-78
2022/01/11 14:49:35;;;;;;;20.13;10.30;;;;;;;-1.69;94.13;100761.97;31338639;28;20049;-76
2022/01/11 15:04:41;;;;;;;22.20;9.13;;;;;;;-1.88;93.91;100757.78;31350181;28;20462;-76
2022/01/11 15:19:44;;;;;;;15.93;8.93;;;;;;;-2.05;92.78;100765.84;31350070;28;20048;-76
2022/01/11 15:34:48;;;;;;;23.53;10.30;;;;;;;-1.97;93.88;100770.38;31351479;28;20052;-76
2022/01/11 15:49:49;;;;;;;14.07;8.03;;;;;;;-2.06;91.88;100782.91;31358049;28;20117;-75
2022/01/11 16:04:54;;;;;;;16.93;9.47;;;;;;;-2.26;92.35;100794.19;31362956;28;20080;-76
2022/01/11 16:19:56;;;;;;;13.07;7.50;;;;;;;-2.41;91.24;100806.91;31346328;28;20056;-77
2022/01/11 16:34:57;;;;;;;16.97;9.30;;;;;;;-2.31;90.65;100812.97;31366786;28;20149;-76
2022/01/11 16:50:03;;;;;;;13.30;7.50;;;;;;;-2.36;87.43;100834.44;31344294;28;20495;-82
2022/01/11 17:05:06;;;;;;;12.83;8.13;;;;;;;-2.56;86.89;100852.53;31373341;28;20064;-82
2022/01/11 17:20:16;;;;;;;11.77;7.40;;;;;;;-2.69;88.02;100866.00;31414382;28;20041;-83
2022/01/11 17:35:19;;;;;;;12.73;7.60;;;;;;;-2.79;86.30;100861.75;31443501;28;20463;-82
2022/01/11 17:50:24;;;;;;;15.20;7.97;;;;;;;-2.82;86.74;100884.41;31506767;28;20077;-83
2022/01/11 18:05:26;;;;;;;15.57;7.97;;;;;;;-2.84;86.47;100861.91;31444570;28;20060;-83
2022/01/11 18:20:29;;;;;;;10.33;6.37;;;;;;;-3.07;85.55;100865.75;31380944;28;20059;-78
2022/01/11 18:35:35;;;;;;;7.63;5.07;;;;;;;-3.29;85.26;100885.97;31348809;28;20053;-77
2022/01/11 18:50:37;;;;;;;7.23;4.43;;;;;;;-3.58;85.56;100893.63;31337077;28;20057;-77
2022/01/11 19:05:40;;;;;;;6.53;4.83;;;;;;;-3.87;83.96;100908.13;31367441;28;20052;-79
2022/01/11 19:20:42;;;;;;;6.60;5.70;;;;;;;-3.93;84.89;100929.75;31367677;28;20068;-75
2022/01/11 19:35:43;;;;;;;10.77;6.23;;;;;;;-4.03;85.38;100938.75;31310000;28;20073;-77
2022/01/11 19:51:05;;;;;;;7.93;5.67;;;;;;;-4.35;85.07;100933.63;31343761;28;20068;-76
2022/01/11 20:06:07;;;;;;;9.73;7.00;;;;;;;-4.41;84.40;100940.09;31324290;28;20148;-76
2022/01/11 20:21:09;;;;;;;9.17;5.40;;;;;;;-4.42;84.38;100943.84;31341341;28;20520;-75
2022/01/11 20:36:12;;;;;;;9.47;5.37;;;;;;;-4.29;84.51;100932.44;31325335;28;20425;-77
2022/01/11 20:51:20;;;;;;;8.17;5.77;;;;;;;-4.28;84.29;100941.97;31364409;28;20131;-77
2022/01/11 21:06:22;;;;;;;9.80;4.93;;;;;;;-4.51;81.63;100947.22;31330368;28;20111;-78
2022/01/11 21:21:24;;;;;;;6.10;4.77;;;;;;;-4.72;80.44;100972.50;31355594;28;20077;-74
2022/01/11 21:36:27;;;;;;;7.27;4.30;;;;;;;-5.00;80.08;100970.94;31314253;28;20050;-76
2022/01/11 21:51:29;;;;;;;9.73;4.97;;;;;;;-5.22;82.25;100964.47;31263028;28;20450;-76
2022/01/11 22:06:31;;;;;;;6.47;4.43;;;;;;;-5.05;83.31;100960.44;31188127;28;20056;-75
2022/01/11 22:21:33;;;;;;;6.10;4.67;;;;;;;-4.98;83.58;100963.50;31224130;28;20689;-75
2022/01/11 22:36:36;;;;;;;8.77;5.10;;;;;;;-5.15;83.46;100958.75;31202242;28;20057;-75
2022/01/11 22:51:38;;;;;;;9.00;4.27;;;;;;;-5.29;80.56;100966.69;31247309;28;20152;-75
2022/01/11 23:06:41;;;;;;;7.30;5.23;;;;;;;-5.47;81.25;100980.75;31214988;28;20050;-76
2022/01/11 23:21:43;;;;;;;9.43;4.63;;;;;;;-5.20;82.51;100994.06;31203472;28;20053;-74
2022/01/11 23:36:49;;;;;;;8.63;5.13;;;;;;;-4.91;81.96;101004.41;31219374;28;20056;-74
2022/01/11 23:51:52;;;;;;;10.20;5.70;;;;;;;-5.18;82.73;101002.47;31346846;28;20136;-75
